sensor_id;sensor_type;location;lat;lon;timestamp;P1;durP1;ratioP1;P2;durP2;ratioP2
41897;SDS011;27576;53.366;-1.498;2023-05-10T00:00:21;9.65;;;4.40;;
41897;SDS011;27576;53.366;-1.498;2023-05-10T00:02:48;11.35;;;3.92;;
41897;SDS011;27576;53.366;-1.498;2023-05-10T00:05:14;9.23;;;3.70;;
41897;SDS011;27576;53.366;-1.498;2023-05-10T00:07:39;12.30;;;3.35;;
41897;SDS011;27576;53.366;-1.498;2023-05-10T00:10:05;11.55;;;3.47;;
41897;SDS011;27576;53.366;-1.498;2023-05-10T00:12:31;13.13;;;3.75;;
41897;SDS011;27576;53.366;-1.498;2023-05-10T00:14:56;7.80;;;2.78;;
41897;SDS011;27576;53.366;-1.498;2023-05-10T00:17:22;7.60;;;2.72;;
41897;SDS011;27576;53.366;-1.498;2023-05-10T00:19:47;9.40;;;2.70;;
41897;SDS011;27576;53.366;-1.498;2023-05-10T00:22:13;8.23;;;3.13;;
41897;SDS011;27576;53.366;-1.498;2023-05-10T00:24:38;7.70;;;3.25;;
41897;SDS011;27576;53.366;-1.498;2023-05-10T00:27:04;9.90;;;2.85;;
41897;SDS011;27576;53.366;-1.498;2023-05-10T00:29:29;10.05;;;3.08;;
41897;SDS011;27576;53.366;-1.498;2023-05-10T00:31:55;12.45;;;3.97;;
41897;SDS011;27576;53.366;-1.498;2023-05-10T00:34:21;10.10;;;3.13;;
41897;SDS011;27576;53.366;-1.498;2023-05-10T00:36:46;6.90;;;3.00;;
41897;SDS011;27576;53.366;-1.498;2023-05-10T00:39:12;8.88;;;3.50;;
41897;SDS011;27576;53.366;-1.498;2023-05-10T00:41:37;11.90;;;3.45;;
41897;SDS011;27576;53.366;-1.498;2023-05-10T00:44:03;16.17;;;3.70;;
41897;SDS011;27576;53.366;-1.498;2023-05-10T00:46:29;12.30;;;3.38;;
41897;SDS011;27576;53.366;-1.498;2023-05-10T00:48:54;12.88;;;3.72;;
41897;SDS011;27576;53.366;-1.498;2023-05-10T00:51:21;12.75;;;4.25;;
41897;SDS011;27576;53.366;-1.498;2023-05-10T00:53:47;14.27;;;3.90;;
41897;SDS011;27576;53.366;-1.498;2023-05-10T00:56:14;11.95;;;3.60;;
41897;SDS011;27576;53.366;-1.498;2023-05-10T00:58:40;12.65;;;3.33;;
41897;SDS011;27576;53.366;-1.498;2023-05-10T01:01:06;10.13;;;3.30;;
41897;SDS011;27576;53.366;-1.498;2023-05-10T01:03:33;12.27;;;3.67;;
41897;SDS011;27576;53.366;-1.498;2023-05-10T01:05:59;14.82;;;4.05;;
41897;SDS011;27576;53.366;-1.498;2023-05-10T01:08:26;9.27;;;3.00;;
41897;SDS011;27576;53.366;-1.498;2023-05-10T01:10:51;14.07;;;3.50;;
41897;SDS011;27576;53.366;-1.498;2023-05-10T01:13:30;7.13;;;2.97;;
41897;SDS011;27576;53.366;-1.498;2023-05-10T01:16:00;10.98;;;3.60;;
41897;SDS011;27576;53.366;-1.498;2023-05-10T01:18:31;11.95;;;3.65;;
41897;SDS011;27576;53.366;-1.498;2023-05-10T01:32:29;9.68;;;3.20;;
41897;SDS011;27576;53.366;-1.498;2023-05-10T01:37:36;8.60;;;2.88;;
41897;SDS011;27576;53.366;-1.498;2023-05-10T01:40:06;13.13;;;3.20;;
41897;SDS011;27576;53.366;-1.498;2023-05-10T01:42:51;9.73;;;3.10;;
41897;SDS011;27576;53.366;-1.498;2023-05-10T01:48:14;11.63;;;2.97;;
41897;SDS011;27576;53.366;-1.498;2023-05-10T01:50:44;10.02;;;3.38;;
41897;SDS011;27576;53.366;-1.498;2023-05-10T01:53:11;17.27;;;3.65;;
41897;SDS011;27576;53.366;-1.498;2023-05-10T01:55:41;10.27;;;2.78;;
41897;SDS011;27576;53.366;-1.498;2023-05-10T01:58:13;8.18;;;2.58;;
41897;SDS011;27576;53.366;-1.498;2023-05-10T02:00:42;10.05;;;3.38;;
41897;SDS011;27576;53.366;-1.498;2023-05-10T02:03:09;9.73;;;3.08;;
41897;SDS011;27576;53.366;-1.498;2023-05-10T02:05:36;8.40;;;3.20;;
41897;SDS011;27576;53.366;-1.498;2023-05-10T02:08:03;13.80;;;3.65;;
41897;SDS011;27576;53.366;-1.498;2023-05-10T02:10:32;13.52;;;3.78;;
41897;SDS011;27576;53.366;-1.498;2023-05-10T02:12:59;9.35;;;3.22;;
41897;SDS011;27576;53.366;-1.498;2023-05-10T02:15:26;11.80;;;3.50;;
41897;SDS011;27576;53.366;-1.498;2023-05-10T02:17:54;11.05;;;3.58;;
41897;SDS011;27576;53.366;-1.498;2023-05-10T02:20:21;14.40;;;3.90;;
41897;SDS011;27576;53.366;-1.498;2023-05-10T02:22:49;15.60;;;3.88;;
41897;SDS011;27576;53.366;-1.498;2023-05-10T02:25:16;12.43;;;3.03;;
41897;SDS011;27576;53.366;-1.498;2023-05-10T02:27:44;10.02;;;3.67;;
41897;SDS011;27576;53.366;-1.498;2023-05-10T02:30:10;15.00;;;4.40;;
41897;SDS011;27576;53.366;-1.498;2023-05-10T02:32:36;12.15;;;4.40;;
41897;SDS011;27576;53.366;-1.498;2023-05-10T02:35:03;12.52;;;4.40;;
41897;SDS011;27576;53.366;-1.498;2023-05-10T02:37:30;10.73;;;4.05;;
41897;SDS011;27576;53.366;-1.498;2023-05-10T02:39:55;13.98;;;3.95;;
41897;SDS011;27576;53.366;-1.498;2023-05-10T02:42:25;12.40;;;4.22;;
41897;SDS011;27576;53.366;-1.498;2023-05-10T02:44:56;10.60;;;3.78;;
41897;SDS011;27576;53.366;-1.498;2023-05-10T02:47:25;12.32;;;4.13;;
41897;SDS011;27576;53.366;-1.498;2023-05-10T02:49:51;14.40;;;4.72;;
41897;SDS011;27576;53.366;-1.498;2023-05-10T02:52:19;15.65;;;5.05;;
41897;SDS011;27576;53.366;-1.498;2023-05-10T02:54:49;13.80;;;4.13;;
41897;SDS011;27576;53.366;-1.498;2023-05-10T02:57:17;13.20;;;5.13;;
41897;SDS011;27576;53.366;-1.498;2023-05-10T02:59:51;11.80;;;3.90;;
41897;SDS011;27576;53.366;-1.498;2023-05-10T03:02:16;11.85;;;4.45;;
41897;SDS011;27576;53.366;-1.498;2023-05-10T03:04:42;11.52;;;4.32;;
41897;SDS011;27576;53.366;-1.498;2023-05-10T03:07:07;15.02;;;3.85;;
41897;SDS011;27576;53.366;-1.498;2023-05-10T03:09:33;19.50;;;4.07;;
41897;SDS011;27576;53.366;-1.498;2023-05-10T03:18:15;10.45;;;4.13;;
41897;SDS011;27576;53.366;-1.498;2023-05-10T03:20:47;10.65;;;4.25;;
41897;SDS011;27576;53.366;-1.498;2023-05-10T03:25:39;13.77;;;5.00;;
41897;SDS011;27576;53.366;-1.498;2023-05-10T03:28:06;10.30;;;4.03;;
41897;SDS011;27576;53.366;-1.498;2023-05-10T03:30:32;10.57;;;3.95;;
41897;SDS011;27576;53.366;-1.498;2023-05-10T03:33:03;12.93;;;4.68;;
41897;SDS011;27576;53.366;-1.498;2023-05-10T03:35:30;9.90;;;4.47;;
41897;SDS011;27576;53.366;-1.498;2023-05-10T03:37:56;12.25;;;4.35;;
41897;SDS011;27576;53.366;-1.498;2023-05-10T03:40:21;10.07;;;3.97;;
41897;SDS011;27576;53.366;-1.498;2023-05-10T03:42:48;15.05;;;4.85;;
41897;SDS011;27576;53.366;-1.498;2023-05-10T03:45:13;11.15;;;5.68;;
41897;SDS011;27576;53.366;-1.498;2023-05-10T03:47:38;10.07;;;4.85;;
41897;SDS011;27576;53.366;-1.498;2023-05-10T03:50:04;14.15;;;4.38;;
41897;SDS011;27576;53.366;-1.498;2023-05-10T03:52:30;10.40;;;4.80;;
41897;SDS011;27576;53.366;-1.498;2023-05-10T03:54:55;11.50;;;4.93;;
41897;SDS011;27576;53.366;-1.498;2023-05-10T03:57:20;17.10;;;5.10;;
41897;SDS011;27576;53.366;-1.498;2023-05-10T03:59:46;10.43;;;4.43;;
41897;SDS011;27576;53.366;-1.498;2023-05-10T04:02:11;13.30;;;4.65;;
41897;SDS011;27576;53.366;-1.498;2023-05-10T04:04:37;11.57;;;4.93;;
41897;SDS011;27576;53.366;-1.498;2023-05-10T04:07:02;11.38;;;5.05;;
41897;SDS011;27576;53.366;-1.498;2023-05-10T04:09:28;18.92;;;5.72;;
41897;SDS011;27576;53.366;-1.498;2023-05-10T04:11:53;15.30;;;5.30;;
41897;SDS011;27576;53.366;-1.498;2023-05-10T04:14:18;14.57;;;5.97;;
41897;SDS011;27576;53.366;-1.498;2023-05-10T04:16:44;14.40;;;5.65;;
41897;SDS011;27576;53.366;-1.498;2023-05-10T04:19:09;11.13;;;5.45;;
41897;SDS011;27576;53.366;-1.498;2023-05-10T04:21:35;10.25;;;5.63;;
41897;SDS011;27576;53.366;-1.498;2023-05-10T04:24:01;17.65;;;6.65;;
41897;SDS011;27576;53.366;-1.498;2023-05-10T04:26:26;16.45;;;6.50;;
41897;SDS011;27576;53.366;-1.498;2023-05-10T04:28:52;13.88;;;5.90;;
41897;SDS011;27576;53.366;-1.498;2023-05-10T04:31:17;12.38;;;5.93;;
41897;SDS011;27576;53.366;-1.498;2023-05-10T04:33:43;12.05;;;5.38;;
41897;SDS011;27576;53.366;-1.498;2023-05-10T04:36:08;13.15;;;5.45;;
41897;SDS011;27576;53.366;-1.498;2023-05-10T04:38:34;10.98;;;5.10;;
41897;SDS011;27576;53.366;-1.498;2023-05-10T04:41:09;16.10;;;6.53;;
41897;SDS011;27576;53.366;-1.498;2023-05-10T04:43:35;16.55;;;6.10;;
41897;SDS011;27576;53.366;-1.498;2023-05-10T04:46:01;13.32;;;6.07;;
41897;SDS011;27576;53.366;-1.498;2023-05-10T04:48:27;12.90;;;6.65;;
41897;SDS011;27576;53.366;-1.498;2023-05-10T04:50:52;13.23;;;7.03;;
41897;SDS011;27576;53.366;-1.498;2023-05-10T04:53:18;20.42;;;7.88;;
41897;SDS011;27576;53.366;-1.498;2023-05-10T04:55:43;14.70;;;7.30;;
41897;SDS011;27576;53.366;-1.498;2023-05-10T04:58:09;17.70;;;7.90;;
41897;SDS011;27576;53.366;-1.498;2023-05-10T05:00:34;10.30;;;6.22;;
41897;SDS011;27576;53.366;-1.498;2023-05-10T05:03:00;11.63;;;7.50;;
41897;SDS011;27576;53.366;-1.498;2023-05-10T05:05:25;11.88;;;6.50;;
41897;SDS011;27576;53.366;-1.498;2023-05-10T05:07:51;16.10;;;7.07;;
41897;SDS011;27576;53.366;-1.498;2023-05-10T05:10:16;16.52;;;8.05;;
41897;SDS011;27576;53.366;-1.498;2023-05-10T05:12:42;16.08;;;6.25;;
41897;SDS011;27576;53.366;-1.498;2023-05-10T05:15:07;10.85;;;6.30;;
41897;SDS011;27576;53.366;-1.498;2023-05-10T05:17:34;13.55;;;6.95;;
41897;SDS011;27576;53.366;-1.498;2023-05-10T05:20:00;15.50;;;7.68;;
41897;SDS011;27576;53.366;-1.498;2023-05-10T05:22:25;14.35;;;7.72;;
41897;SDS011;27576;53.366;-1.498;2023-05-10T05:24:56;11.23;;;6.15;;
41897;SDS011;27576;53.366;-1.498;2023-05-10T05:27:23;18.35;;;7.00;;
41897;SDS011;27576;53.366;-1.498;2023-05-10T05:29:52;15.00;;;7.07;;
41897;SDS011;27576;53.366;-1.498;2023-05-10T05:32:22;14.43;;;6.43;;
41897;SDS011;27576;53.366;-1.498;2023-05-10T05:34:48;16.23;;;6.63;;
41897;SDS011;27576;53.366;-1.498;2023-05-10T05:37:17;16.10;;;7.00;;
41897;SDS011;27576;53.366;-1.498;2023-05-10T05:39:44;14.43;;;6.65;;
41897;SDS011;27576;53.366;-1.498;2023-05-10T05:42:10;16.98;;;7.20;;
41897;SDS011;27576;53.366;-1.498;2023-05-10T05:44:36;12.70;;;6.50;;
41897;SDS011;27576;53.366;-1.498;2023-05-10T05:47:02;16.42;;;7.10;;
41897;SDS011;27576;53.366;-1.498;2023-05-10T05:49:28;11.15;;;5.80;;
41897;SDS011;27576;53.366;-1.498;2023-05-10T05:51:54;12.52;;;6.30;;
41897;SDS011;27576;53.366;-1.498;2023-05-10T05:54:19;11.30;;;6.60;;
41897;SDS011;27576;53.366;-1.498;2023-05-10T05:56:44;17.70;;;7.47;;
41897;SDS011;27576;53.366;-1.498;2023-05-10T05:59:10;14.90;;;6.32;;
41897;SDS011;27576;53.366;-1.498;2023-05-10T06:01:36;16.50;;;6.85;;
41897;SDS011;27576;53.366;-1.498;2023-05-10T06:04:02;10.80;;;5.88;;
41897;SDS011;27576;53.366;-1.498;2023-05-10T06:06:27;15.43;;;6.78;;
41897;SDS011;27576;53.366;-1.498;2023-05-10T06:08:53;14.45;;;6.82;;
41897;SDS011;27576;53.366;-1.498;2023-05-10T06:11:18;13.48;;;7.10;;
41897;SDS011;27576;53.366;-1.498;2023-05-10T06:13:46;16.67;;;6.95;;
41897;SDS011;27576;53.366;-1.498;2023-05-10T06:16:12;16.65;;;7.47;;
41897;SDS011;27576;53.366;-1.498;2023-05-10T06:18:38;12.23;;;6.25;;
41897;SDS011;27576;53.366;-1.498;2023-05-10T06:21:03;12.68;;;6.32;;
41897;SDS011;27576;53.366;-1.498;2023-05-10T06:23:29;17.60;;;7.10;;
41897;SDS011;27576;53.366;-1.498;2023-05-10T06:25:55;12.63;;;6.88;;
41897;SDS011;27576;53.366;-1.498;2023-05-10T06:28:21;11.50;;;6.05;;
41897;SDS011;27576;53.366;-1.498;2023-05-10T06:30:46;12.23;;;5.90;;
41897;SDS011;27576;53.366;-1.498;2023-05-10T06:33:12;13.85;;;6.18;;
41897;SDS011;27576;53.366;-1.498;2023-05-10T06:35:38;11.70;;;5.75;;
41897;SDS011;27576;53.366;-1.498;2023-05-10T06:38:03;10.50;;;5.13;;
41897;SDS011;27576;53.366;-1.498;2023-05-10T06:40:29;9.90;;;5.35;;
41897;SDS011;27576;53.366;-1.498;2023-05-10T06:42:54;7.80;;;4.50;;
41897;SDS011;27576;53.366;-1.498;2023-05-10T06:45:20;9.73;;;4.75;;
41897;SDS011;27576;53.366;-1.498;2023-05-10T06:47:45;9.13;;;4.82;;
41897;SDS011;27576;53.366;-1.498;2023-05-10T06:50:11;7.50;;;4.38;;
41897;SDS011;27576;53.366;-1.498;2023-05-10T06:52:36;7.35;;;4.30;;
41897;SDS011;27576;53.366;-1.498;2023-05-10T06:55:03;9.70;;;4.40;;
41897;SDS011;27576;53.366;-1.498;2023-05-10T06:57:29;9.45;;;4.88;;
41897;SDS011;27576;53.366;-1.498;2023-05-10T06:59:54;8.48;;;4.40;;
41897;SDS011;27576;53.366;-1.498;2023-05-10T07:02:21;8.65;;;3.67;;
41897;SDS011;27576;53.366;-1.498;2023-05-10T07:04:48;12.68;;;4.90;;
41897;SDS011;27576;53.366;-1.498;2023-05-10T07:07:14;10.65;;;4.65;;
41897;SDS011;27576;53.366;-1.498;2023-05-10T07:09:39;9.80;;;3.70;;
41897;SDS011;27576;53.366;-1.498;2023-05-10T07:12:05;10.50;;;3.78;;
41897;SDS011;27576;53.366;-1.498;2023-05-10T07:14:30;9.50;;;3.88;;
41897;SDS011;27576;53.366;-1.498;2023-05-10T07:16:56;8.10;;;3.92;;
41897;SDS011;27576;53.366;-1.498;2023-05-10T07:19:21;7.45;;;3.63;;
41897;SDS011;27576;53.366;-1.498;2023-05-10T07:21:47;7.78;;;3.63;;
41897;SDS011;27576;53.366;-1.498;2023-05-10T07:24:12;8.38;;;4.20;;
41897;SDS011;27576;53.366;-1.498;2023-05-10T07:26:38;11.93;;;3.55;;
41897;SDS011;27576;53.366;-1.498;2023-05-10T07:29:03;8.13;;;3.63;;
41897;SDS011;27576;53.366;-1.498;2023-05-10T07:31:29;11.23;;;3.75;;
41897;SDS011;27576;53.366;-1.498;2023-05-10T07:33:54;7.43;;;3.45;;
41897;SDS011;27576;53.366;-1.498;2023-05-10T07:36:19;11.48;;;3.72;;
41897;SDS011;27576;53.366;-1.498;2023-05-10T07:38:45;11.65;;;3.70;;
41897;SDS011;27576;53.366;-1.498;2023-05-10T07:41:13;7.40;;;3.25;;
41897;SDS011;27576;53.366;-1.498;2023-05-10T07:43:39;6.90;;;3.33;;
41897;SDS011;27576;53.366;-1.498;2023-05-10T07:46:04;6.50;;;3.00;;
41897;SDS011;27576;53.366;-1.498;2023-05-10T07:48:30;7.47;;;2.97;;
41897;SDS011;27576;53.366;-1.498;2023-05-10T07:50:56;6.75;;;2.85;;
41897;SDS011;27576;53.366;-1.498;2023-05-10T07:53:21;6.82;;;2.60;;
41897;SDS011;27576;53.366;-1.498;2023-05-10T07:55:50;11.77;;;2.45;;
41897;SDS011;27576;53.366;-1.498;2023-05-10T07:58:16;7.13;;;2.30;;
41897;SDS011;27576;53.366;-1.498;2023-05-10T08:00:42;6.60;;;2.60;;
41897;SDS011;27576;53.366;-1.498;2023-05-10T08:03:07;10.48;;;2.80;;
41897;SDS011;27576;53.366;-1.498;2023-05-10T08:05:32;7.93;;;2.95;;
41897;SDS011;27576;53.366;-1.498;2023-05-10T08:07:58;4.95;;;2.50;;
41897;SDS011;27576;53.366;-1.498;2023-05-10T08:10:24;4.90;;;3.28;;
41897;SDS011;27576;53.366;-1.498;2023-05-10T08:12:50;7.28;;;3.40;;
41897;SDS011;27576;53.366;-1.498;2023-05-10T08:15:15;11.98;;;3.80;;
41897;SDS011;27576;53.366;-1.498;2023-05-10T08:17:41;9.60;;;3.72;;
41897;SDS011;27576;53.366;-1.498;2023-05-10T08:20:07;7.55;;;4.03;;
41897;SDS011;27576;53.366;-1.498;2023-05-10T08:22:33;9.25;;;3.97;;
41897;SDS011;27576;53.366;-1.498;2023-05-10T08:24:59;11.73;;;4.50;;
41897;SDS011;27576;53.366;-1.498;2023-05-10T08:27:24;7.75;;;3.70;;
41897;SDS011;27576;53.366;-1.498;2023-05-10T08:29:49;8.15;;;3.03;;
41897;SDS011;27576;53.366;-1.498;2023-05-10T08:32:15;7.78;;;3.97;;
41897;SDS011;27576;53.366;-1.498;2023-05-10T08:34:40;9.00;;;4.47;;
41897;SDS011;27576;53.366;-1.498;2023-05-10T08:37:05;8.82;;;5.68;;
41897;SDS011;27576;53.366;-1.498;2023-05-10T08:39:33;7.90;;;3.95;;
41897;SDS011;27576;53.366;-1.498;2023-05-10T08:42:00;7.40;;;4.05;;
41897;SDS011;27576;53.366;-1.498;2023-05-10T08:44:29;6.40;;;3.33;;
41897;SDS011;27576;53.366;-1.498;2023-05-10T08:46:57;9.85;;;3.38;;
41897;SDS011;27576;53.366;-1.498;2023-05-10T08:49:27;9.23;;;2.95;;
41897;SDS011;27576;53.366;-1.498;2023-05-10T08:51:55;6.30;;;2.70;;
41897;SDS011;27576;53.366;-1.498;2023-05-10T08:54:25;7.97;;;2.60;;
41897;SDS011;27576;53.366;-1.498;2023-05-10T08:56:51;4.97;;;2.00;;
41897;SDS011;27576;53.366;-1.498;2023-05-10T08:59:18;4.72;;;1.70;;
41897;SDS011;27576;53.366;-1.498;2023-05-10T09:01:43;3.65;;;1.75;;
41897;SDS011;27576;53.366;-1.498;2023-05-10T09:04:10;3.80;;;1.60;;
41897;SDS011;27576;53.366;-1.498;2023-05-10T09:06:36;5.45;;;2.25;;
41897;SDS011;27576;53.366;-1.498;2023-05-10T09:09:02;5.90;;;1.60;;
41897;SDS011;27576;53.366;-1.498;2023-05-10T09:11:28;4.90;;;1.40;;
41897;SDS011;27576;53.366;-1.498;2023-05-10T09:13:55;3.70;;;1.35;;
41897;SDS011;27576;53.366;-1.498;2023-05-10T09:16:21;5.30;;;1.35;;
41897;SDS011;27576;53.366;-1.498;2023-05-10T09:18:46;3.78;;;1.30;;
41897;SDS011;27576;53.366;-1.498;2023-05-10T09:21:12;5.72;;;1.98;;
41897;SDS011;27576;53.366;-1.498;2023-05-10T09:23:38;3.50;;;1.33;;
41897;SDS011;27576;53.366;-1.498;2023-05-10T09:26:08;5.88;;;2.15;;
41897;SDS011;27576;53.366;-1.498;2023-05-10T09:28:33;4.10;;;2.70;;
41897;SDS011;27576;53.366;-1.498;2023-05-10T09:31:14;3.42;;;2.20;;
41897;SDS011;27576;53.366;-1.498;2023-05-10T09:33:47;4.35;;;2.58;;
41897;SDS011;27576;53.366;-1.498;2023-05-10T09:36:13;6.00;;;2.42;;
41897;SDS011;27576;53.366;-1.498;2023-05-10T09:38:46;6.00;;;2.53;;
41897;SDS011;27576;53.366;-1.498;2023-05-10T09:41:21;4.28;;;3.10;;
41897;SDS011;27576;53.366;-1.498;2023-05-10T09:43:47;7.50;;;3.33;;
41897;SDS011;27576;53.366;-1.498;2023-05-10T09:46:14;3.97;;;2.72;;
41897;SDS011;27576;53.366;-1.498;2023-05-10T09:48:44;5.00;;;2.75;;
41897;SDS011;27576;53.366;-1.498;2023-05-10T09:51:18;4.82;;;2.65;;
41897;SDS011;27576;53.366;-1.498;2023-05-10T09:53:44;5.30;;;2.58;;
41897;SDS011;27576;53.366;-1.498;2023-05-10T09:56:10;5.53;;;2.33;;
41897;SDS011;27576;53.366;-1.498;2023-05-10T09:58:36;9.32;;;2.50;;
41897;SDS011;27576;53.366;-1.498;2023-05-10T10:01:03;4.18;;;1.90;;
41897;SDS011;27576;53.366;-1.498;2023-05-10T10:03:28;6.15;;;2.33;;
41897;SDS011;27576;53.366;-1.498;2023-05-10T10:05:55;5.53;;;2.30;;
41897;SDS011;27576;53.366;-1.498;2023-05-10T10:08:21;6.72;;;2.30;;
41897;SDS011;27576;53.366;-1.498;2023-05-10T10:10:46;3.20;;;2.50;;
41897;SDS011;27576;53.366;-1.498;2023-05-10T10:13:12;5.35;;;2.80;;
41897;SDS011;27576;53.366;-1.498;2023-05-10T10:15:38;4.38;;;2.40;;
41897;SDS011;27576;53.366;-1.498;2023-05-10T10:18:04;2.50;;;1.75;;
41897;SDS011;27576;53.366;-1.498;2023-05-10T10:20:30;4.75;;;1.75;;
41897;SDS011;27576;53.366;-1.498;2023-05-10T10:22:56;3.05;;;1.67;;
41897;SDS011;27576;53.366;-1.498;2023-05-10T10:25:21;3.33;;;1.58;;
41897;SDS011;27576;53.366;-1.498;2023-05-10T10:36:11;2.30;;;1.42;;
41897;SDS011;27576;53.366;-1.498;2023-05-10T10:41:31;2.42;;;1.20;;
41897;SDS011;27576;53.366;-1.498;2023-05-10T10:49:34;3.78;;;1.58;;
41897;SDS011;27576;53.366;-1.498;2023-05-10T10:55:12;4.25;;;1.77;;
41897;SDS011;27576;53.366;-1.498;2023-05-10T11:00:32;4.22;;;1.83;;
41897;SDS011;27576;53.366;-1.498;2023-05-10T11:03:06;7.25;;;1.80;;
41897;SDS011;27576;53.366;-1.498;2023-05-10T11:07:58;4.90;;;1.77;;
41897;SDS011;27576;53.366;-1.498;2023-05-10T11:10:25;4.90;;;2.33;;
41897;SDS011;27576;53.366;-1.498;2023-05-10T11:13:05;4.82;;;1.90;;
41897;SDS011;27576;53.366;-1.498;2023-05-10T11:17:58;6.93;;;2.45;;
41897;SDS011;27576;53.366;-1.498;2023-05-10T11:20:28;3.47;;;2.38;;
41897;SDS011;27576;53.366;-1.498;2023-05-10T11:22:58;5.55;;;2.20;;
41897;SDS011;27576;53.366;-1.498;2023-05-10T11:25:40;4.07;;;2.10;;
41897;SDS011;27576;53.366;-1.498;2023-05-10T11:28:10;3.97;;;2.13;;
41897;SDS011;27576;53.366;-1.498;2023-05-10T11:30:39;4.00;;;1.80;;
41897;SDS011;27576;53.366;-1.498;2023-05-10T11:33:07;2.97;;;1.63;;
41897;SDS011;27576;53.366;-1.498;2023-05-10T11:35:37;2.53;;;1.60;;
41897;SDS011;27576;53.366;-1.498;2023-05-10T11:38:07;2.10;;;1.42;;
41897;SDS011;27576;53.366;-1.498;2023-05-10T11:40:35;2.47;;;1.38;;
41897;SDS011;27576;53.366;-1.498;2023-05-10T11:43:02;3.08;;;1.00;;
41897;SDS011;27576;53.366;-1.498;2023-05-10T11:45:29;0.88;;;0.70;;
41897;SDS011;27576;53.366;-1.498;2023-05-10T11:47:57;1.70;;;0.98;;
41897;SDS011;27576;53.366;-1.498;2023-05-10T11:50:22;1.00;;;0.60;;
41897;SDS011;27576;53.366;-1.498;2023-05-10T11:52:51;2.15;;;1.00;;
41897;SDS011;27576;53.366;-1.498;2023-05-10T11:55:18;2.28;;;1.05;;
41897;SDS011;27576;53.366;-1.498;2023-05-10T11:57:43;2.15;;;1.10;;
41897;SDS011;27576;53.366;-1.498;2023-05-10T12:00:11;2.40;;;1.08;;
41897;SDS011;27576;53.366;-1.498;2023-05-10T12:02:37;1.40;;;0.70;;
41897;SDS011;27576;53.366;-1.498;2023-05-10T12:05:04;2.20;;;1.00;;
41897;SDS011;27576;53.366;-1.498;2023-05-10T12:07:30;1.77;;;1.10;;
41897;SDS011;27576;53.366;-1.498;2023-05-10T12:10:29;3.55;;;1.35;;
41897;SDS011;27576;53.366;-1.498;2023-05-10T12:12:51;1.70;;;1.17;;
41897;SDS011;27576;53.366;-1.498;2023-05-10T12:15:18;3.00;;;1.45;;
41897;SDS011;27576;53.366;-1.498;2023-05-10T12:17:45;3.65;;;1.40;;
41897;SDS011;27576;53.366;-1.498;2023-05-10T12:20:21;1.60;;;1.50;;
41897;SDS011;27576;53.366;-1.498;2023-05-10T12:22:52;1.83;;;1.10;;
41897;SDS011;27576;53.366;-1.498;2023-05-10T12:25:22;0.85;;;0.75;;
41897;SDS011;27576;53.366;-1.498;2023-05-10T12:27:50;0.70;;;0.70;;
41897;SDS011;27576;53.366;-1.498;2023-05-10T12:30:23;0.50;;;0.50;;
41897;SDS011;27576;53.366;-1.498;2023-05-10T12:32:49;0.47;;;0.47;;
41897;SDS011;27576;53.366;-1.498;2023-05-10T12:35:15;0.70;;;0.70;;
41897;SDS011;27576;53.366;-1.498;2023-05-10T12:37:44;0.63;;;0.63;;
41897;SDS011;27576;53.366;-1.498;2023-05-10T12:40:10;0.90;;;0.90;;
41897;SDS011;27576;53.366;-1.498;2023-05-10T12:42:36;2.05;;;0.80;;
41897;SDS011;27576;53.366;-1.498;2023-05-10T12:45:03;2.15;;;0.80;;
41897;SDS011;27576;53.366;-1.498;2023-05-10T12:47:30;0.82;;;0.82;;
41897;SDS011;27576;53.366;-1.498;2023-05-10T12:49:56;3.22;;;0.70;;
41897;SDS011;27576;53.366;-1.498;2023-05-10T12:52:22;1.95;;;0.80;;
41897;SDS011;27576;53.366;-1.498;2023-05-10T12:54:47;0.70;;;0.70;;
41897;SDS011;27576;53.366;-1.498;2023-05-10T12:57:13;2.08;;;0.80;;
41897;SDS011;27576;53.366;-1.498;2023-05-10T12:59:38;0.95;;;0.85;;
41897;SDS011;27576;53.366;-1.498;2023-05-10T13:02:04;1.83;;;0.90;;
41897;SDS011;27576;53.366;-1.498;2023-05-10T13:04:30;0.90;;;0.90;;
41897;SDS011;27576;53.366;-1.498;2023-05-10T13:06:55;1.13;;;0.80;;
41897;SDS011;27576;53.366;-1.498;2023-05-10T13:09:23;0.60;;;0.60;;
41897;SDS011;27576;53.366;-1.498;2023-05-10T13:11:53;1.50;;;0.77;;
41897;SDS011;27576;53.366;-1.498;2023-05-10T13:14:19;1.38;;;1.00;;
41897;SDS011;27576;53.366;-1.498;2023-05-10T13:16:45;0.80;;;0.80;;
41897;SDS011;27576;53.366;-1.498;2023-05-10T13:19:12;1.20;;;0.75;;
41897;SDS011;27576;53.366;-1.498;2023-05-10T13:21:38;0.82;;;0.82;;
41897;SDS011;27576;53.366;-1.498;2023-05-10T13:24:03;1.02;;;1.00;;
41897;SDS011;27576;53.366;-1.498;2023-05-10T13:26:29;2.35;;;1.13;;
41897;SDS011;27576;53.366;-1.498;2023-05-10T13:28:54;1.00;;;0.90;;
41897;SDS011;27576;53.366;-1.498;2023-05-10T13:31:20;0.88;;;0.88;;
41897;SDS011;27576;53.366;-1.498;2023-05-10T13:33:46;2.22;;;0.88;;
41897;SDS011;27576;53.366;-1.498;2023-05-10T13:36:11;1.38;;;1.00;;
41897;SDS011;27576;53.366;-1.498;2023-05-10T13:38:37;1.15;;;0.95;;
41897;SDS011;27576;53.366;-1.498;2023-05-10T13:41:02;1.27;;;0.90;;
41897;SDS011;27576;53.366;-1.498;2023-05-10T13:43:28;2.80;;;1.17;;
41897;SDS011;27576;53.366;-1.498;2023-05-10T13:45:54;2.75;;;1.27;;
41897;SDS011;27576;53.366;-1.498;2023-05-10T13:48:20;1.50;;;1.13;;
41897;SDS011;27576;53.366;-1.498;2023-05-10T13:50:46;1.42;;;0.90;;
41897;SDS011;27576;53.366;-1.498;2023-05-10T13:53:11;0.93;;;0.80;;
41897;SDS011;27576;53.366;-1.498;2023-05-10T13:55:37;1.13;;;1.02;;
41897;SDS011;27576;53.366;-1.498;2023-05-10T13:58:02;1.33;;;1.23;;
41897;SDS011;27576;53.366;-1.498;2023-05-10T14:00:28;1.58;;;0.90;;
41897;SDS011;27576;53.366;-1.498;2023-05-10T14:02:53;2.35;;;0.98;;
41897;SDS011;27576;53.366;-1.498;2023-05-10T14:05:19;1.58;;;1.40;;
41897;SDS011;27576;53.366;-1.498;2023-05-10T14:07:44;2.20;;;1.17;;
41897;SDS011;27576;53.366;-1.498;2023-05-10T14:10:09;1.25;;;0.90;;
41897;SDS011;27576;53.366;-1.498;2023-05-10T14:12:35;1.65;;;1.50;;
41897;SDS011;27576;53.366;-1.498;2023-05-10T14:15:00;1.55;;;1.33;;
41897;SDS011;27576;53.366;-1.498;2023-05-10T14:17:26;2.13;;;1.40;;
41897;SDS011;27576;53.366;-1.498;2023-05-10T14:19:52;2.40;;;1.50;;
41897;SDS011;27576;53.366;-1.498;2023-05-10T14:22:17;1.08;;;0.98;;
41897;SDS011;27576;53.366;-1.498;2023-05-10T14:24:43;1.10;;;1.00;;
41897;SDS011;27576;53.366;-1.498;2023-05-10T14:27:11;0.80;;;0.80;;
41897;SDS011;27576;53.366;-1.498;2023-05-10T14:29:37;1.05;;;1.05;;
41897;SDS011;27576;53.366;-1.498;2023-05-10T14:32:02;1.15;;;0.95;;
41897;SDS011;27576;53.366;-1.498;2023-05-10T14:34:28;1.35;;;1.00;;
41897;SDS011;27576;53.366;-1.498;2023-05-10T14:36:53;1.65;;;0.90;;
41897;SDS011;27576;53.366;-1.498;2023-05-10T14:39:19;1.52;;;1.10;;
41897;SDS011;27576;53.366;-1.498;2023-05-10T14:41:44;1.05;;;0.80;;
41897;SDS011;27576;53.366;-1.498;2023-05-10T14:44:10;0.93;;;0.88;;
41897;SDS011;27576;53.366;-1.498;2023-05-10T14:46:36;1.65;;;1.17;;
41897;SDS011;27576;53.366;-1.498;2023-05-10T14:49:01;3.25;;;1.23;;
41897;SDS011;27576;53.366;-1.498;2023-05-10T14:51:27;2.05;;;0.90;;
41897;SDS011;27576;53.366;-1.498;2023-05-10T14:53:52;2.75;;;1.20;;
41897;SDS011;27576;53.366;-1.498;2023-05-10T14:56:17;1.85;;;1.10;;
41897;SDS011;27576;53.366;-1.498;2023-05-10T14:58:43;1.73;;;1.10;;
41897;SDS011;27576;53.366;-1.498;2023-05-10T15:01:08;1.13;;;0.90;;
41897;SDS011;27576;53.366;-1.498;2023-05-10T15:03:33;1.42;;;1.05;;
41897;SDS011;27576;53.366;-1.498;2023-05-10T15:05:59;1.77;;;1.25;;
41897;SDS011;27576;53.366;-1.498;2023-05-10T15:08:24;2.47;;;1.02;;
41897;SDS011;27576;53.366;-1.498;2023-05-10T15:10:50;1.98;;;1.13;;
41897;SDS011;27576;53.366;-1.498;2023-05-10T15:13:16;2.10;;;1.25;;
41897;SDS011;27576;53.366;-1.498;2023-05-10T15:15:41;0.90;;;0.90;;
41897;SDS011;27576;53.366;-1.498;2023-05-10T15:18:08;1.70;;;0.70;;